Historyczne dane pomiarowe

Dodano dane terminowe – wersja testowa.

Dane z okresu 1951-2019

Wersja bazy: 1.34 [2019-03-16, lista zmian], aktualizacja planowana na 2019-04-15

Dane meteo z obszaru Polski uzyskane na podstawie danych udostępnionych przez Instytut Meteorologii i Gospodarki Wodnej – Państwowy Instytut Badawczy.

 

Wybierz Datę:    

       

TemperaturaWilgotnośćWiatrCiśnienieOpadyŚniegCzas trwania zjawisk
 Stacja t tx tn tng RH VA  wxwx mslp ppp RRR   cm mm wxwxwxwxwxwxwx
1956-11-09 -1.6 1.3 -3.2 -6.7 71.3- 6.3 3.3---- 0.0------------
1956-11-08 -0.6 4.4 -5.5-10.1 77.5- 4.0 1.0---- 0.0------------
1956-11-07 -0.4 2.5 -1.8 -2.3 88.5- 5.0 1.3---- 0.0-- 1---------
1956-11-06 1.3 3.2 0.3 -1.9 83.3- 6.3 3.0---- 1.7------------
1956-11-05 3.9 7.6 1.8 1.9 75.3- 5.3 5.0---- 5.1------------
1956-11-04 2.0 3.2 -0.7 -4.0 80.0- 7.7 2.7---- 0.2------------
1956-11-03 0.9 4.7 -2.8 -6.4 71.8- 4.0 1.7---- 0.0------------
1956-11-02 0.2 4.9 -2.8 -0.3 81.5- 4.3 1.7---- 0.0------------
1956-11-01 0.4 2.1 -4.4 -9.9 89.3- 8.0 3.3---- 0.1------------
1956-10-31 -4.1 -0.6 -8.4-10.8 66.3- 1.7 1.7---- 0.0------------
1956-10-30 -2.5 0.2 -3.8 -1.3 85.8- 5.3 5.0---- 0.6------------
1956-10-29 1.4 5.7 -0.2 3.5 94.8- 8.0 5.3---- 3.6------------
1956-10-28 6.6 8.0 5.4 6.2 95.3- 8.0 3.7---- 3.3------------
1956-10-27 6.7 7.2 2.8 -1.7 92.3- 8.0 7.0---- 10.6------------
1956-10-26 5.9 9.5 4.3 1.2 84.0- 7.7 0.3---- 0.0------------
1956-10-25 9.7 13.2 7.8 9.4 84.0- 5.3 3.3---- 0.0------------
1956-10-24 12.6 14.4 10.1 9.3 82.8- 7.7 4.0---- 0.0------------
1956-10-23 10.3 11.9 9.6 8.8 78.0- 7.7 4.3---- 0.0------------
1956-10-22 11.4 12.2 10.9 10.2 81.3- 7.7 4.7---- 0.0------------
1956-10-21 12.0 13.8 10.3 7.5 85.5- 7.7 2.7---- 0.0------------
1956-10-20 10.3 12.2 7.0 4.7 87.5- 8.0 3.7---- 0.0------------
1956-10-19 10.7 13.0 7.8 11.6 87.0- 7.7 3.3---- 0.3------------
1956-10-18 11.6 12.9 9.5 7.2 96.3- 8.0 2.3---- 1.6------------
1956-10-17 9.6 15.0 1.7 -2.5 68.3- 2.7 3.3---- 0.0------------
1956-10-16 4.3 13.8 -2.4 -4.8 78.0- 1.3 0.3---- 0.0------------
1956-10-15 4.3 11.7 1.6 -2.0 86.3- 0.0 1.7---- 0.0------------
1956-10-14 6.6 11.6 4.8 3.7 81.8- 3.3 3.3---- 0.0------------
1956-10-13 9.7 11.9 8.9 7.7 82.5- 6.7 7.3---- 9.6------------
1956-10-12 10.0 10.6 9.2 8.7 80.8- 7.7 6.0---- 0.0------------
1956-10-11 9.0 10.2 5.5 3.1 85.8- 7.0 3.3---- 0.0------------
1956-10-10 4.6 9.7 -2.2 -6.4 78.5- 4.7 1.3---- 0.0------------
1956-10-09 6.2 10.4 2.9 4.2 92.5- 7.7 3.3---- 4.1------------
1956-10-08 5.6 8.3 3.9 1.2 80.8- 6.7 2.3---- 7.6------------
1956-10-07 5.6 7.7 4.7 3.4 88.8- 7.7 4.3---- 2.8------------
1956-10-06 6.1 8.3 4.3 1.6 88.8- 7.7 2.0---- 0.0------------
1956-10-05 7.5 11.3 5.8 4.8 86.8- 5.0 3.3---- 1.0------------
1956-10-04 9.6 14.2 6.5 0.8 83.5- 6.0 2.7---- 4.2------------
1956-10-03 10.6 14.0 8.5 11.1 91.3- 5.0 3.7---- 4.2------------
1956-10-02 14.4 20.7 10.5 5.4 88.8- 7.3 3.7---- 14.7------------
1956-10-01 13.7 17.6 7.9 2.9 90.8- 5.0 1.7---- 4.6------------
1956-09-30 12.0 17.8 9.3 6.7 83.8- 3.0 2.3---- 0.0------------
1956-09-29 13.3 16.3 12.1 10.5 82.0- 4.0 6.0---- 0.0------------
1956-09-28 14.8 17.8 13.2 0.3 84.3- 6.0 4.7---- 0.3------------
1956-09-27 15.3 19.7 10.1 5.6 85.3- 6.7 2.7---- 3.7------------
1956-09-26 15.0 21.7 8.5 2.5 67.8- 0.7 2.7---- 0.0------------
1956-09-25 11.8 19.2 3.1 -0.4 73.3- 0.0 2.0---- 0.0------------
1956-09-24 9.7 15.9 4.6 1.7 61.3- 0.0 3.0---- 0.0------------
1956-09-23 11.3 17.6 6.9 4.2 73.8- 2.7 2.7---- 0.0------------
1956-09-22 11.3 18.4 3.7 -0.3 82.0- 0.3 2.0---- 0.0------------
1956-09-21 8.9 18.5 0.6 -1.0 86.0- 0.3 0.3---- 0.0------------
1956-09-20 7.7 16.9 2.1 -1.3 85.3- 2.7 1.0---- 0.0------------
1956-09-19 8.3 16.6 -0.1 -1.5 83.5- 4.0 1.0---- 0.0------------
1956-09-18 7.8 15.4 4.2 -0.6 87.0- 2.0 1.7---- 0.0------------
1956-09-17 8.6 14.8 5.0 5.3 77.5- 3.3 3.3---- 0.0------------
1956-09-16 10.7 14.1 6.7 2.9 82.3- 6.7 5.0---- 0.0------------
1956-09-15 11.0 15.1 9.5 7.5 78.0- 6.0 4.0---- 0.0------------
1956-09-14 10.9 16.8 3.6 -0.2 80.5- 3.3 2.0---- 0.2------------
1956-09-13 7.9 11.5 5.3 5.9 93.8- 7.0 4.0---- 3.9------------
1956-09-12 9.8 15.4 7.0 9.8 86.8- 3.3 4.3---- 5.4------------
1956-09-11 15.1 19.3 11.5 9.7 87.8- 6.7 1.3---- 9.0------------
171.4 ms

 

Źródłem pochodzenia danych jest Instytut Meteorologii i Gospodarki Wodnej – Państwowy Instytut Badawczy. Dane Instytutu Meteorologii i Gospodarki Wodnej – Państwowego Instytutu Badawczego zostały przetworzone.

Dane źródłowe można odnaleźć na stronie https://dane.imgw.pl